Weather at Aeroflex-Andover Airport

Public forecast

Using degrees Fahrenheit for public forecast. Weather courtesy of forecast.io.

Current aviation weather report (METAR) for Aeroflex-Andover Airport

Report is more than 6 hours old.

2022/11/14 14:54 (retrieved 2 years ago)

K12N 141454Z AUTO 36007G17KT 330V040 04/M06 A3033 RMK AO1 SLP279 T00441061 51017

Closest aviation forecast (TAF) to Aeroflex-Andover Airport

Forecast is more than 12 hours old.

Closest forecast is Newark Liberty International Airport, 32.1 nm (59.4 km) SE.

2023/02/22 18:30 Ammendment (retrieved 1 year ago)

TAF AMD KEWR 221828Z 2218/2324 25008KT P6SM -PLRA BKN050 FM221900 23007KT 6SM -RA BR SCT025 OVC050 TEMPO 2219/2222 -RASNPL OVC015 FM222200 10005KT 5SM -RA OVC010 FM230000 09007KT 5SM -RA BR OVC008 FM230500 06006KT 3SM -RADZ BR OVC006 FM231200 36005KT P6SM OVC012